createdAt,value
2019-03-24T00:00:59.842Z,41.07
2019-03-24T00:03:29.617Z,36.23
2019-03-24T00:06:08.845Z,38.30
2019-03-24T00:08:47.864Z,36.97
2019-03-24T00:11:17.075Z,43.87
2019-03-24T00:13:46.311Z,39.97
2019-03-24T00:16:15.529Z,37.70
2019-03-24T00:18:53.831Z,44.97
2019-03-24T00:21:23.145Z,44.90
2019-03-24T00:23:52.482Z,46.50
2019-03-24T00:26:23.475Z,39.10
2019-03-24T00:29:02.103Z,38.87
2019-03-24T00:31:31.589Z,35.50
2019-03-24T00:34:00.899Z,37.83
2019-03-24T00:36:33.351Z,37.50
2019-03-24T00:39:12.859Z,36.90
2019-03-24T00:41:44.366Z,35.07
2019-03-24T00:44:16.057Z,34.33
2019-03-24T00:46:45.466Z,34.70
2019-03-24T00:49:24.460Z,32.80
2019-03-24T00:51:53.924Z,36.87
2019-03-24T00:54:23.138Z,35.17
2019-03-24T00:56:52.979Z,34.93
2019-03-24T00:59:32.484Z,34.20
2019-03-24T01:02:02.112Z,35.40
2019-03-24T01:04:31.611Z,36.20
2019-03-24T01:07:01.113Z,35.50
2019-03-24T01:09:41.480Z,38.93
2019-03-24T01:12:10.952Z,39.33
2019-03-24T01:14:40.458Z,38.67
2019-03-24T01:17:09.689Z,36.47
2019-03-24T01:19:48.197Z,38.87
2019-03-24T01:22:17.689Z,37.77
2019-03-24T01:24:46.935Z,42.03
2019-03-24T01:27:16.211Z,39.40
2019-03-24T01:29:54.546Z,40.27
2019-03-24T01:32:23.784Z,40.77
2019-03-24T01:34:53.120Z,40.70
2019-03-24T01:37:22.543Z,41.60
2019-03-24T01:40:01.238Z,42.47
2019-03-24T01:42:31.039Z,45.77
2019-03-24T01:45:00.931Z,43.03
2019-03-24T01:47:30.319Z,43.00
2019-03-24T01:50:08.820Z,39.90
2019-03-24T01:52:38.321Z,42.93
2019-03-24T01:55:08.705Z,45.60
2019-03-24T01:57:37.998Z,42.23
2019-03-24T02:00:16.403Z,43.13
2019-03-24T02:02:45.880Z,44.17
2019-03-24T02:05:15.102Z,41.13
2019-03-24T02:07:44.759Z,41.10
2019-03-24T02:10:23.199Z,45.53
2019-03-24T02:12:54.793Z,45.40
2019-03-24T02:15:24.282Z,44.27
2019-03-24T02:17:53.528Z,46.23
2019-03-24T02:20:31.882Z,45.33
2019-03-24T02:23:01.354Z,45.37
2019-03-24T02:25:31.100Z,45.23
2019-03-24T02:28:01.158Z,41.50
2019-03-24T02:33:14.151Z,46.50
2019-03-24T02:35:43.950Z,46.20
2019-03-24T02:38:13.611Z,46.10
2019-03-24T02:40:52.457Z,48.37
2019-03-24T02:43:23.768Z,45.50
2019-03-24T02:45:53.046Z,45.77
2019-03-24T02:48:25.268Z,49.30
2019-03-24T02:51:03.948Z,47.53
2019-03-24T02:53:33.155Z,44.90
2019-03-24T02:56:02.386Z,47.63
2019-03-24T02:58:31.649Z,45.57
2019-03-24T03:01:12.104Z,46.13
2019-03-24T03:03:41.350Z,45.80
2019-03-24T03:06:10.650Z,44.40
2019-03-24T03:08:39.994Z,48.53
2019-03-24T03:11:30.226Z,42.60
2019-03-24T03:13:59.722Z,42.10
2019-03-24T03:16:38.288Z,43.53
2019-03-24T03:19:02.345Z,46.80
2019-03-24T03:21:40.800Z,47.13
2019-03-24T03:24:10.026Z,43.17
2019-03-24T03:26:39.251Z,44.27
2019-03-24T03:29:08.624Z,39.77
2019-03-24T03:31:38.194Z,43.93
2019-03-24T03:34:07.941Z,44.40
2019-03-24T03:36:37.491Z,45.40
2019-03-24T03:39:08.598Z,45.40
2019-03-24T03:41:53.448Z,46.23
2019-03-24T03:44:22.997Z,43.37
2019-03-24T03:46:53.565Z,44.07
2019-03-24T03:49:23.184Z,42.53
2019-03-24T03:52:46.125Z,41.77
2019-03-24T03:55:15.641Z,42.73
2019-03-24T03:57:47.283Z,43.07
2019-03-24T04:00:44.805Z,41.13
2019-03-24T04:03:16.142Z,44.80
2019-03-24T04:05:48.255Z,43.63
2019-03-24T04:08:17.466Z,43.80
2019-03-24T04:11:10.262Z,44.43
2019-03-24T04:13:39.512Z,43.30
2019-03-24T04:16:08.981Z,41.83
2019-03-24T04:18:38.266Z,45.43
2019-03-24T04:21:16.735Z,43.10
2019-03-24T04:23:45.997Z,43.60
2019-03-24T04:26:15.827Z,43.77
2019-03-24T04:28:45.234Z,41.50
2019-03-24T04:31:23.766Z,41.50
2019-03-24T04:33:53.203Z,44.10
2019-03-24T04:36:22.632Z,45.53
2019-03-24T04:38:54.914Z,44.10
2019-03-24T04:41:48.450Z,44.00
2019-03-24T04:44:17.704Z,40.67
2019-03-24T04:46:47.308Z,41.23
2019-03-24T04:49:16.523Z,43.87
2019-03-24T04:51:55.212Z,41.93
2019-03-24T04:54:24.432Z,42.27
2019-03-24T04:56:53.626Z,43.37
2019-03-24T04:59:22.853Z,43.10
2019-03-24T05:04:37.212Z,43.13
2019-03-24T05:07:06.512Z,42.57
2019-03-24T05:09:35.858Z,45.27
2019-03-24T05:12:14.270Z,40.43
2019-03-24T05:14:44.016Z,42.93
2019-03-24T05:17:13.221Z,45.33
2019-03-24T05:19:45.277Z,40.70
2019-03-24T05:23:08.248Z,42.63
2019-03-24T05:25:39.659Z,44.60
2019-03-24T05:28:08.958Z,42.70
2019-03-24T05:33:34.230Z,41.97
2019-03-24T05:36:03.773Z,41.33
2019-03-24T05:38:33.275Z,40.63
2019-03-24T05:41:12.031Z,39.63
2019-03-24T05:43:53.566Z,41.63
2019-03-24T05:46:24.856Z,41.13
2019-03-24T05:48:54.086Z,41.97
2019-03-24T05:51:32.727Z,42.57
2019-03-24T05:54:02.197Z,41.10
2019-03-24T05:56:31.699Z,40.20
2019-03-24T05:59:00.913Z,41.83
2019-03-24T06:01:39.271Z,37.83
2019-03-24T06:04:08.465Z,39.93
2019-03-24T06:06:37.751Z,38.93
2019-03-24T06:09:08.689Z,39.23
2019-03-24T06:11:59.491Z,41.17
2019-03-24T06:14:30.810Z,38.10
2019-03-24T06:17:00.155Z,39.40
2019-03-24T06:19:32.391Z,38.50
2019-03-24T06:22:10.654Z,35.10
2019-03-24T06:24:40.421Z,37.33
2019-03-24T06:27:09.713Z,38.37
2019-03-24T06:29:38.942Z,35.97
2019-03-24T06:32:17.219Z,35.07
2019-03-24T06:34:46.766Z,35.77
2019-03-24T06:37:16.001Z,34.27
2019-03-24T06:39:45.529Z,34.43
2019-03-24T06:42:23.845Z,35.23
2019-03-24T06:44:56.085Z,34.63
2019-03-24T06:47:25.440Z,33.57
2019-03-24T06:49:54.971Z,33.23
2019-03-24T06:52:35.767Z,32.90
2019-03-24T06:55:14.296Z,31.87
2019-03-24T06:57:43.593Z,32.33
2019-03-24T07:00:15.346Z,33.57
2019-03-24T07:02:54.088Z,33.40
2019-03-24T07:05:41.169Z,33.63
2019-03-24T07:08:10.279Z,33.10
2019-03-24T07:10:39.934Z,35.20
2019-03-24T07:13:32.122Z,33.90
2019-03-24T07:16:23.059Z,34.87
2019-03-24T07:18:53.779Z,34.27
2019-03-24T07:25:03.818Z,33.87
2019-03-24T07:27:33.250Z,33.93
2019-03-24T07:30:02.533Z,35.53
2019-03-24T07:32:40.765Z,34.47
2019-03-24T07:35:10.052Z,33.00
2019-03-24T07:37:40.757Z,35.67
2019-03-24T07:40:10.026Z,33.23
2019-03-24T07:42:54.879Z,40.07
2019-03-24T07:45:30.898Z,32.57
2019-03-24T07:51:37.524Z,34.97
2019-03-24T07:54:23.017Z,67.50
2019-03-24T07:56:52.375Z,34.90
2019-03-24T07:59:32.577Z,34.83
2019-03-24T08:02:50.824Z,32.90
2019-03-24T08:05:53.158Z,34.50
2019-03-24T08:09:06.480Z,32.40
2019-03-24T08:14:59.855Z,34.60
2019-03-24T08:17:57.434Z,33.03
2019-03-24T08:28:25.932Z,33.80
2019-03-24T08:30:57.238Z,36.20
2019-03-24T08:36:15.675Z,36.40
2019-03-24T08:38:47.387Z,36.63
2019-03-24T08:41:16.686Z,35.80
2019-03-24T08:43:55.110Z,34.67
2019-03-24T08:46:24.348Z,37.73
2019-03-24T08:48:53.981Z,36.00
2019-03-24T08:51:26.489Z,35.67
2019-03-24T08:54:17.079Z,35.97
2019-03-24T08:56:47.171Z,36.43
2019-03-24T08:59:16.720Z,38.60
2019-03-24T09:01:46.170Z,36.20
2019-03-24T09:04:24.634Z,37.93
2019-03-24T09:07:13.041Z,35.87
2019-03-24T09:09:44.330Z,36.93
2019-03-24T09:12:13.860Z,35.67
2019-03-24T09:14:49.050Z,37.70
2019-03-24T09:17:18.599Z,36.53
2019-03-24T09:19:47.871Z,36.20
2019-03-24T09:22:17.438Z,37.53
2019-03-24T09:24:55.966Z,36.77
2019-03-24T09:27:25.272Z,35.03
2019-03-24T09:29:54.526Z,37.13
2019-03-24T09:32:23.771Z,36.67
2019-03-24T09:35:02.214Z,37.57
2019-03-24T09:37:31.806Z,35.65
2019-03-24T09:40:32.258Z,36.48
2019-03-24T09:43:01.646Z,35.35
2019-03-24T09:46:10.289Z,36.53
2019-03-24T09:48:39.924Z,36.70
2019-03-24T09:51:09.802Z,35.75
2019-03-24T09:53:39.419Z,35.65
2019-03-24T09:56:09.023Z,36.40
2019-03-24T09:58:50.691Z,36.77
2019-03-24T10:01:20.009Z,37.58
2019-03-24T10:03:49.364Z,36.20
2019-03-24T10:06:18.921Z,35.75
2019-03-24T10:08:57.886Z,36.70
2019-03-24T10:11:27.813Z,36.83
2019-03-24T10:13:59.829Z,36.53
2019-03-24T10:16:31.557Z,36.73
2019-03-24T10:19:14.149Z,34.23
2019-03-24T10:21:41.390Z,37.45
2019-03-24T10:24:11.074Z,35.58
2019-03-24T10:26:40.496Z,35.68
2019-03-24T10:29:19.263Z,37.00
2019-03-24T10:31:49.158Z,35.52
2019-03-24T10:34:18.455Z,37.33
2019-03-24T10:36:48.009Z,38.00
2019-03-24T10:39:26.651Z,36.65
2019-03-24T10:41:56.216Z,37.15
2019-03-24T10:44:25.471Z,35.73
2019-03-24T10:46:54.798Z,37.25
2019-03-24T10:49:45.092Z,36.88
2019-03-24T10:52:16.602Z,36.77
2019-03-24T10:54:46.280Z,35.68
2019-03-24T10:57:15.800Z,37.98
2019-03-24T10:59:54.021Z,38.53
2019-03-24T11:02:26.373Z,36.63
2019-03-24T11:04:55.700Z,36.73
2019-03-24T11:07:25.303Z,35.80
2019-03-24T11:10:04.156Z,36.50
2019-03-24T11:12:33.718Z,36.93
2019-03-24T11:15:03.637Z,35.33
2019-03-24T11:17:33.004Z,35.70
2019-03-24T11:20:11.799Z,37.48
2019-03-24T11:22:46.440Z,35.92
2019-03-24T11:28:46.679Z,34.70
2019-03-24T11:34:02.840Z,37.98
2019-03-24T11:36:32.420Z,33.80
2019-03-24T11:39:04.977Z,35.73
2019-03-24T11:41:43.992Z,33.50
2019-03-24T11:44:14.541Z,35.03
2019-03-24T11:46:45.866Z,34.40
2019-03-24T11:49:17.531Z,35.33
2019-03-24T11:51:56.070Z,35.70
2019-03-24T11:54:53.004Z,36.25
2019-03-24T11:57:25.373Z,34.50
2019-03-24T12:00:11.041Z,35.28
2019-03-24T12:02:40.400Z,35.55
2019-03-24T12:05:10.075Z,36.45
2019-03-24T12:07:39.413Z,34.13
2019-03-24T12:10:17.744Z,35.75
2019-03-24T12:12:47.307Z,35.98
2019-03-24T12:15:16.992Z,34.92
2019-03-24T12:17:46.555Z,34.40
2019-03-24T12:20:28.875Z,34.38
2019-03-24T12:22:59.449Z,34.78
2019-03-24T12:25:31.281Z,36.63
2019-03-24T12:28:00.678Z,35.60
2019-03-24T12:30:39.309Z,35.40
2019-03-24T12:33:08.690Z,34.00
2019-03-24T12:55:28.618Z,33.80
2019-03-24T12:57:58.651Z,34.53
2019-03-24T13:00:43.365Z,31.05
2019-03-24T13:03:15.167Z,32.75
2019-03-24T13:05:46.904Z,34.88
2019-03-24T13:08:24.738Z,36.70
2019-03-24T13:11:03.321Z,36.53
2019-03-24T13:13:32.595Z,34.70
2019-03-24T13:16:02.182Z,33.23
2019-03-24T13:18:31.475Z,33.30
2019-03-24T13:21:10.316Z,32.00
2019-03-24T13:23:39.593Z,32.73
2019-03-24T13:26:08.835Z,33.30
2019-03-24T13:28:38.366Z,32.47
2019-03-24T13:31:17.272Z,34.67
2019-03-24T13:33:46.544Z,34.93
2019-03-24T13:36:16.120Z,33.83
2019-03-24T13:38:47.995Z,33.50
2019-03-24T13:41:26.874Z,34.50
2019-03-24T13:43:57.414Z,32.63
2019-03-24T13:46:26.695Z,32.70
2019-03-24T13:48:55.979Z,34.60
2019-03-24T13:51:37.543Z,34.50
2019-03-24T13:54:08.558Z,35.10
2019-03-24T13:56:40.559Z,32.37
2019-03-24T13:59:09.899Z,34.57
2019-03-24T14:01:48.328Z,33.83
2019-03-24T14:04:17.631Z,35.33
2019-03-24T14:06:47.213Z,35.60
2019-03-24T14:09:16.604Z,34.60
2019-03-24T14:11:55.027Z,35.33
2019-03-24T14:14:24.657Z,33.50
2019-03-24T14:16:53.923Z,33.07
2019-03-24T14:19:26.017Z,35.07
2019-03-24T14:22:04.731Z,32.60
2019-03-24T14:24:34.320Z,33.73
2019-03-24T14:27:03.718Z,33.13
2019-03-24T14:29:33.094Z,34.93
2019-03-24T14:32:11.410Z,34.93
2019-03-24T14:34:40.715Z,36.70
2019-03-24T14:37:11.816Z,35.00
2019-03-24T14:39:41.482Z,33.60
2019-03-24T14:42:21.635Z,35.07
2019-03-24T14:44:52.367Z,35.30
2019-03-24T14:47:22.063Z,35.43
2019-03-24T14:49:54.995Z,36.00
2019-03-24T14:52:24.584Z,34.57
2019-03-24T14:54:54.183Z,34.03
2019-03-24T14:57:26.956Z,33.67
2019-03-24T14:59:56.991Z,34.93
2019-03-24T15:02:35.812Z,33.83
2019-03-24T15:05:06.235Z,32.97
2019-03-24T15:07:37.477Z,31.93
2019-03-24T15:10:08.097Z,31.60
2019-03-24T15:12:46.318Z,30.53
2019-03-24T15:15:17.804Z,31.57
2019-03-24T15:17:47.092Z,34.30
2019-03-24T15:20:16.369Z,31.17
2019-03-24T15:22:55.086Z,32.73
2019-03-24T15:25:24.418Z,33.87
2019-03-24T15:27:53.744Z,33.40
2019-03-24T15:30:25.332Z,33.50
2019-03-24T15:33:03.795Z,34.47
2019-03-24T15:35:33.313Z,32.80
2019-03-24T15:38:09.152Z,32.27
2019-03-24T15:41:38.484Z,31.23
2019-03-24T15:47:23.648Z,32.70
2019-03-24T15:49:53.694Z,31.87
2019-03-24T15:52:41.110Z,30.63
2019-03-24T15:55:15.806Z,30.90
2019-03-24T15:57:45.021Z,31.63
2019-03-24T16:00:16.021Z,29.87
2019-03-24T16:02:54.460Z,29.87
2019-03-24T16:05:23.746Z,32.43
2019-03-24T16:07:55.406Z,30.17
2019-03-24T16:10:34.903Z,30.50
2019-03-24T16:13:15.351Z,30.93
2019-03-24T16:15:37.978Z,29.90
2019-03-24T16:18:07.363Z,31.07
2019-03-24T16:20:37.810Z,33.13
2019-03-24T16:26:06.585Z,30.77
2019-03-24T16:28:37.366Z,30.63
2019-03-24T16:31:09.564Z,32.70
2019-03-24T16:33:48.381Z,31.27
2019-03-24T16:36:24.778Z,31.87
2019-03-24T16:39:03.197Z,31.90
2019-03-24T16:41:25.449Z,32.50
2019-03-24T16:46:39.657Z,27.70
2019-03-24T16:49:09.019Z,29.50
2019-03-24T16:51:41.582Z,31.90
2019-03-24T16:54:38.133Z,30.77
2019-03-24T16:57:07.596Z,31.80
2019-03-24T16:59:39.713Z,32.57
2019-03-24T17:02:09.125Z,32.83
2019-03-24T17:04:50.626Z,32.70
2019-03-24T17:07:20.196Z,31.80
2019-03-24T17:09:49.478Z,32.67
2019-03-24T17:12:18.993Z,31.93
2019-03-24T17:15:00.397Z,32.87
2019-03-24T17:17:29.635Z,32.10
2019-03-24T17:20:01.180Z,31.80
2019-03-24T17:22:40.033Z,30.20
2019-03-24T17:25:11.474Z,31.97
2019-03-24T17:27:41.048Z,31.30
2019-03-24T17:30:11.181Z,30.50
2019-03-24T17:32:41.950Z,32.03
2019-03-24T17:35:25.491Z,31.53
2019-03-24T17:37:54.942Z,32.47
2019-03-24T17:40:24.248Z,30.80
2019-03-24T17:42:56.617Z,30.97
2019-03-24T17:45:34.978Z,32.43
2019-03-24T17:48:38.270Z,32.57
2019-03-24T17:50:46.766Z,31.77
2019-03-24T17:53:18.789Z,31.10
2019-03-24T17:58:32.689Z,32.70
2019-03-24T18:01:01.959Z,31.70
2019-03-24T18:03:46.506Z,31.33
2019-03-24T18:06:18.133Z,30.13
2019-03-24T18:08:47.405Z,31.57
2019-03-24T18:11:16.901Z,32.33
2019-03-24T18:16:33.059Z,31.37
2019-03-24T18:19:04.412Z,30.43
2019-03-24T18:21:33.675Z,30.57
2019-03-24T18:26:47.788Z,30.10
2019-03-24T18:29:17.405Z,31.20
2019-03-24T18:31:46.707Z,29.00
2019-03-24T18:34:25.416Z,29.57
2019-03-24T18:36:55.356Z,30.00
2019-03-24T18:39:24.870Z,28.50
2019-03-24T18:41:54.324Z,30.27
2019-03-24T18:44:34.480Z,28.03
2019-03-24T18:47:04.050Z,29.93
2019-03-24T18:49:33.605Z,28.93
2019-03-24T18:52:03.732Z,28.97
2019-03-24T18:54:43.569Z,26.57
2019-03-24T18:57:16.475Z,28.37
2019-03-24T18:59:47.024Z,27.73
2019-03-24T19:02:16.358Z,25.43
2019-03-24T19:04:54.895Z,25.37
2019-03-24T19:07:24.452Z,25.47
2019-03-24T19:09:53.820Z,26.53
2019-03-24T19:12:26.241Z,26.57
2019-03-24T19:15:07.746Z,25.13
2019-03-24T19:17:39.293Z,23.97
2019-03-24T19:20:11.991Z,23.87
2019-03-24T19:22:41.839Z,24.10
2019-03-24T19:27:54.937Z,22.90
2019-03-24T19:30:33.948Z,23.80
2019-03-24T19:33:03.262Z,23.60
2019-03-24T19:35:41.602Z,24.43
2019-03-24T19:38:11.252Z,23.30
2019-03-24T19:40:40.773Z,23.97
2019-03-24T19:43:10.580Z,25.33
2019-03-24T19:46:01.427Z,22.90
2019-03-24T19:48:33.519Z,23.27
2019-03-24T19:51:02.785Z,26.20
2019-03-24T19:53:32.355Z,23.60
2019-03-24T19:56:12.314Z,23.53
2019-03-24T19:58:42.146Z,23.10
2019-03-24T20:01:13.913Z,23.20
2019-03-24T20:03:43.585Z,24.00
2019-03-24T20:08:58.587Z,22.40
2019-03-24T20:11:30.741Z,21.87
2019-03-24T20:14:02.814Z,23.37
2019-03-24T20:16:44.522Z,21.53
2019-03-24T20:19:14.971Z,22.23
2019-03-24T20:21:47.036Z,22.40
2019-03-24T20:24:16.321Z,21.30
2019-03-24T20:26:55.107Z,20.17
2019-03-24T20:29:24.781Z,21.60
2019-03-24T20:31:54.063Z,22.13
2019-03-24T20:34:23.351Z,22.13
2019-03-24T20:37:02.085Z,22.70
2019-03-24T20:39:31.767Z,21.70
2019-03-24T20:42:01.223Z,21.27
2019-03-24T20:44:32.429Z,19.60
2019-03-24T20:47:23.864Z,20.63
2019-03-24T20:49:55.821Z,21.27
2019-03-24T20:52:25.080Z,21.80
2019-03-24T20:54:54.347Z,20.87
2019-03-24T20:57:32.988Z,20.50
2019-03-24T21:00:02.826Z,21.83
2019-03-24T21:02:32.376Z,22.40
2019-03-24T21:05:01.646Z,20.40
2019-03-24T21:07:40.079Z,20.93
2019-03-24T21:10:09.600Z,19.73
2019-03-24T21:12:39.168Z,20.20
2019-03-24T21:15:11.429Z,22.13
2019-03-24T21:20:24.751Z,22.67
2019-03-24T21:22:54.023Z,20.70
2019-03-24T21:25:25.722Z,19.70
2019-03-24T21:28:04.401Z,22.47
2019-03-24T21:30:36.930Z,22.23
2019-03-24T21:33:06.269Z,23.30
2019-03-24T21:35:36.454Z,21.87
2019-03-24T21:38:07.697Z,22.20
2019-03-24T21:40:38.194Z,21.17
2019-03-24T21:43:07.462Z,22.47
2019-03-24T21:45:36.790Z,24.60
2019-03-24T21:50:51.821Z,22.23
2019-03-24T21:53:21.575Z,22.10
2019-03-24T21:55:50.802Z,23.53
2019-03-24T21:58:29.262Z,20.90
2019-03-24T22:00:58.466Z,21.20
2019-03-24T22:03:27.768Z,20.43
2019-03-24T22:05:56.977Z,21.97
2019-03-24T22:08:35.163Z,21.93
2019-03-24T22:11:04.386Z,22.20
2019-03-24T22:13:33.578Z,21.03
2019-03-24T22:16:02.806Z,22.07
2019-03-24T22:21:07.145Z,22.90
2019-03-24T22:23:38.199Z,22.50
2019-03-24T22:26:07.526Z,22.67
2019-03-24T22:28:46.224Z,20.97
2019-03-24T22:31:15.452Z,21.57
2019-03-24T22:33:46.830Z,20.40
2019-03-24T22:36:16.079Z,20.20
2019-03-24T22:38:54.441Z,21.33
2019-03-24T22:41:23.689Z,19.93
2019-03-24T22:43:52.928Z,20.80
2019-03-24T22:46:23.822Z,21.27
2019-03-24T22:51:37.435Z,20.23
2019-03-24T22:54:06.881Z,21.10
2019-03-24T22:56:37.540Z,23.03
2019-03-24T22:59:16.160Z,22.83
2019-03-24T23:01:45.454Z,23.90
2019-03-24T23:04:16.141Z,21.60
2019-03-24T23:06:45.392Z,25.53
2019-03-24T23:09:27.017Z,25.03
2019-03-24T23:11:56.240Z,23.80
2019-03-24T23:14:25.705Z,21.97
2019-03-24T23:16:54.922Z,23.47
2019-03-24T23:19:33.558Z,21.30
2019-03-24T23:22:02.766Z,21.67
2019-03-24T23:24:32.009Z,21.43
2019-03-24T23:27:04.456Z,20.97
2019-03-24T23:29:46.133Z,19.47
2019-03-24T23:32:15.416Z,19.10
2019-03-24T23:34:44.728Z,20.27
2019-03-24T23:37:13.941Z,19.77
2019-03-24T23:39:52.652Z,19.13
2019-03-24T23:42:25.012Z,18.43
2019-03-24T23:44:54.517Z,18.77
2019-03-24T23:47:23.874Z,17.63
2019-03-24T23:52:37.914Z,16.13
2019-03-24T23:55:08.269Z,16.17
2019-03-24T23:57:37.469Z,15.67
